< < Back
Terminal Aerodrome Forecast


Current Version              Previous Versions:   1  2  3  4  5  6  7  8  9  

Terminal Aerodrome Forecast

577
FTUS42 KMLB 220300 AAA
TAFDAB
TAF AMD
KDAB 220339Z 2204/2224 VRB03KT 3SM -RA BR SCT035 OVC100
     FM220600 VRB03KT 2SM -RA BR SCT010 BKN015 OVC030
     FM221600 20007KT P6SM VCSH SCT030 BKN050 BKN100=



Latest METAR

667
SAUS80 KWBC 222200 RRD
MTRDAB
METAR KDAB 222153Z 18005KT 10SM SCT035 SCT150 BKN250 24/19 A2991 RMK AO2
SLP128 T02390194


USA.gov is the U.S. government's official web portal to all federal, state and local government web resources and services.